sensor_id;sensor_type;location;lat;lon;timestamp;pressure;altitude;pressure_sealevel;temperature;humidity
13414;BME280;6778;48.136;11.386;2023-02-16T00:00:48;96352.16;;;-0.97;93.42
13414;BME280;6778;48.136;11.386;2023-02-16T00:03:21;96349.00;;;-0.90;94.42
13414;BME280;6778;48.136;11.386;2023-02-16T00:05:52;96359.75;;;-0.85;93.76
13414;BME280;6778;48.136;11.386;2023-02-16T00:08:22;96359.16;;;-0.88;93.20
13414;BME280;6778;48.136;11.386;2023-02-16T00:10:51;96349.84;;;-1.00;93.09
13414;BME280;6778;48.136;11.386;2023-02-16T00:13:34;96350.31;;;-1.06;93.46
13414;BME280;6778;48.136;11.386;2023-02-16T00:16:16;96348.78;;;-1.09;93.35
13414;BME280;6778;48.136;11.386;2023-02-16T00:18:50;96342.38;;;-1.26;93.09
13414;BME280;6778;48.136;11.386;2023-02-16T00:21:21;96342.84;;;-1.21;92.85
13414;BME280;6778;48.136;11.386;2023-02-16T00:23:51;96329.75;;;-1.18;92.38
13414;BME280;6778;48.136;11.386;2023-02-16T00:26:23;96327.44;;;-1.21;92.33
13414;BME280;6778;48.136;11.386;2023-02-16T00:28:56;96327.44;;;-1.21;92.06
13414;BME280;6778;48.136;11.386;2023-02-16T00:31:29;96319.34;;;-1.16;91.77
13414;BME280;6778;48.136;11.386;2023-02-16T00:34:24;96321.00;;;-1.15;91.77
13414;BME280;6778;48.136;11.386;2023-02-16T00:36:56;96312.50;;;-1.27;92.21
13414;BME280;6778;48.136;11.386;2023-02-16T00:39:27;96317.59;;;-1.16;92.33
13414;BME280;6778;48.136;11.386;2023-02-16T00:42:01;96316.09;;;-1.07;91.74
13414;BME280;6778;48.136;11.386;2023-02-16T00:44:35;96322.25;;;-1.10;91.65
13414;BME280;6778;48.136;11.386;2023-02-16T00:47:17;96316.53;;;-1.02;91.68
13414;BME280;6778;48.136;11.386;2023-02-16T00:49:52;96311.38;;;-1.02;91.61
13414;BME280;6778;48.136;11.386;2023-02-16T00:52:31;96315.16;;;-1.06;92.32
13414;BME280;6778;48.136;11.386;2023-02-16T00:55:04;96308.47;;;-0.97;92.14
13414;BME280;6778;48.136;11.386;2023-02-16T00:57:39;96314.28;;;-0.95;92.19
13414;BME280;6778;48.136;11.386;2023-02-16T01:02:48;96320.38;;;-0.96;92.62
13414;BME280;6778;48.136;11.386;2023-02-16T01:05:22;96316.44;;;-1.00;92.89
13414;BME280;6778;48.136;11.386;2023-02-16T01:07:53;96317.56;;;-0.93;92.39
13414;BME280;6778;48.136;11.386;2023-02-16T01:10:37;96318.84;;;-0.88;92.45
13414;BME280;6778;48.136;11.386;2023-02-16T01:13:38;96318.72;;;-0.86;92.74
13414;BME280;6778;48.136;11.386;2023-02-16T01:16:11;96319.34;;;-0.94;92.96
13414;BME280;6778;48.136;11.386;2023-02-16T01:18:43;96326.09;;;-0.93;92.90
13414;BME280;6778;48.136;11.386;2023-02-16T01:21:17;96330.88;;;-0.88;92.52
13414;BME280;6778;48.136;11.386;2023-02-16T01:23:48;96338.38;;;-0.96;92.44
13414;BME280;6778;48.136;11.386;2023-02-16T01:26:19;96336.50;;;-0.94;93.01
13414;BME280;6778;48.136;11.386;2023-02-16T01:28:49;96334.84;;;-0.84;93.99
13414;BME280;6778;48.136;11.386;2023-02-16T01:31:20;96338.16;;;-0.93;94.38
13414;BME280;6778;48.136;11.386;2023-02-16T01:33:51;96326.91;;;-0.92;94.42
13414;BME280;6778;48.136;11.386;2023-02-16T01:36:28;96333.34;;;-0.98;94.59
13414;BME280;6778;48.136;11.386;2023-02-16T01:39:00;96325.28;;;-0.93;94.44
13414;BME280;6778;48.136;11.386;2023-02-16T01:41:45;96329.50;;;-0.92;94.34
13414;BME280;6778;48.136;11.386;2023-02-16T01:44:24;96337.19;;;-0.92;94.43
13414;BME280;6778;48.136;11.386;2023-02-16T01:47:03;96336.25;;;-0.91;93.97
13414;BME280;6778;48.136;11.386;2023-02-16T01:49:36;96330.44;;;-0.93;94.27
13414;BME280;6778;48.136;11.386;2023-02-16T01:52:22;96331.25;;;-0.93;94.09
13414;BME280;6778;48.136;11.386;2023-02-16T01:55:01;96329.97;;;-1.10;94.94
13414;BME280;6778;48.136;11.386;2023-02-16T01:57:41;96328.69;;;-1.04;94.73
13414;BME280;6778;48.136;11.386;2023-02-16T02:00:18;96327.88;;;-1.16;94.35
13414;BME280;6778;48.136;11.386;2023-02-16T02:02:54;96322.38;;;-1.11;94.61
13414;BME280;6778;48.136;11.386;2023-02-16T02:05:47;96317.72;;;-1.17;93.83
13414;BME280;6778;48.136;11.386;2023-02-16T02:14:55;96305.25;;;-1.33;93.42
13414;BME280;6778;48.136;11.386;2023-02-16T02:17:27;96301.53;;;-1.40;93.21
13414;BME280;6778;48.136;11.386;2023-02-16T02:20:06;96298.38;;;-1.55;93.44
13414;BME280;6778;48.136;11.386;2023-02-16T02:23:04;96297.56;;;-1.55;94.54
13414;BME280;6778;48.136;11.386;2023-02-16T02:29:06;96292.63;;;-1.36;93.52
13414;BME280;6778;48.136;11.386;2023-02-16T02:31:49;96296.16;;;-1.59;95.79
13414;BME280;6778;48.136;11.386;2023-02-16T02:34:38;96298.72;;;-1.37;95.05
13414;BME280;6778;48.136;11.386;2023-02-16T02:37:21;96295.91;;;-1.34;95.96
13414;BME280;6778;48.136;11.386;2023-02-16T02:40:05;96294.72;;;-1.30;96.17
13414;BME280;6778;48.136;11.386;2023-02-16T02:42:43;96288.78;;;-1.30;94.64
13414;BME280;6778;48.136;11.386;2023-02-16T02:45:23;96291.00;;;-1.26;93.84
13414;BME280;6778;48.136;11.386;2023-02-16T02:47:56;96290.06;;;-1.25;93.69
13414;BME280;6778;48.136;11.386;2023-02-16T02:50:43;96289.38;;;-1.27;92.93
13414;BME280;6778;48.136;11.386;2023-02-16T02:53:40;96284.56;;;-1.20;92.77
13414;BME280;6778;48.136;11.386;2023-02-16T02:56:16;96281.63;;;-1.16;92.79
13414;BME280;6778;48.136;11.386;2023-02-16T02:59:03;96287.59;;;-1.15;92.93
13414;BME280;6778;48.136;11.386;2023-02-16T03:01:56;96287.34;;;-1.12;93.12
13414;BME280;6778;48.136;11.386;2023-02-16T03:04:30;96285.59;;;-1.12;93.29
13414;BME280;6778;48.136;11.386;2023-02-16T03:07:04;96281.84;;;-1.07;93.61
13414;BME280;6778;48.136;11.386;2023-02-16T03:09:35;96282.22;;;-1.12;93.53
13414;BME280;6778;48.136;11.386;2023-02-16T03:12:08;96287.91;;;-1.08;93.44
13414;BME280;6778;48.136;11.386;2023-02-16T03:14:55;96288.84;;;-1.10;93.42
13414;BME280;6778;48.136;11.386;2023-02-16T03:17:33;96292.81;;;-1.05;93.75
13414;BME280;6778;48.136;11.386;2023-02-16T03:20:17;96283.94;;;-1.01;93.59
13414;BME280;6778;48.136;11.386;2023-02-16T03:23:02;96288.03;;;-1.10;93.20
13414;BME280;6778;48.136;11.386;2023-02-16T03:25:45;96286.06;;;-1.18;93.16
13414;BME280;6778;48.136;11.386;2023-02-16T03:28:30;96294.00;;;-1.10;93.58
13414;BME280;6778;48.136;11.386;2023-02-16T03:31:17;96288.56;;;-0.95;94.05
13414;BME280;6778;48.136;11.386;2023-02-16T03:33:51;96295.81;;;-0.89;93.69
13414;BME280;6778;48.136;11.386;2023-02-16T03:36:27;96300.53;;;-0.94;94.19
13414;BME280;6778;48.136;11.386;2023-02-16T03:38:58;96299.00;;;-0.97;93.80
13414;BME280;6778;48.136;11.386;2023-02-16T03:41:33;96298.44;;;-1.00;93.81
13414;BME280;6778;48.136;11.386;2023-02-16T03:44:03;96299.25;;;-1.00;93.80
13414;BME280;6778;48.136;11.386;2023-02-16T03:46:33;96306.81;;;-0.98;93.80
13414;BME280;6778;48.136;11.386;2023-02-16T03:49:07;96302.16;;;-1.04;94.01
13414;BME280;6778;48.136;11.386;2023-02-16T03:51:37;96303.78;;;-1.03;94.03
13414;BME280;6778;48.136;11.386;2023-02-16T03:54:07;96301.47;;;-1.06;94.15
13414;BME280;6778;48.136;11.386;2023-02-16T03:56:37;96298.91;;;-1.06;94.09
13414;BME280;6778;48.136;11.386;2023-02-16T03:59:07;96301.69;;;-1.10;94.09
13414;BME280;6778;48.136;11.386;2023-02-16T04:01:36;96311.16;;;-1.10;93.67
13414;BME280;6778;48.136;11.386;2023-02-16T04:04:09;96307.56;;;-1.19;93.60
13414;BME280;6778;48.136;11.386;2023-02-16T04:06:40;96310.97;;;-1.18;93.95
13414;BME280;6778;48.136;11.386;2023-02-16T04:09:10;96302.47;;;-1.41;93.78
13414;BME280;6778;48.136;11.386;2023-02-16T04:11:40;96307.00;;;-1.33;94.13
13414;BME280;6778;48.136;11.386;2023-02-16T04:14:22;96307.34;;;-1.27;93.53
13414;BME280;6778;48.136;11.386;2023-02-16T04:16:52;96309.47;;;-1.32;93.23
13414;BME280;6778;48.136;11.386;2023-02-16T04:19:25;96311.69;;;-1.39;92.94
13414;BME280;6778;48.136;11.386;2023-02-16T04:21:56;96307.50;;;-1.62;92.77
13414;BME280;6778;48.136;11.386;2023-02-16T04:24:26;96308.44;;;-1.74;93.66
13414;BME280;6778;48.136;11.386;2023-02-16T04:26:55;96314.03;;;-1.80;93.47
13414;BME280;6778;48.136;11.386;2023-02-16T04:29:26;96313.53;;;-1.85;95.10
13414;BME280;6778;48.136;11.386;2023-02-16T04:31:55;96314.13;;;-1.93;95.95
13414;BME280;6778;48.136;11.386;2023-02-16T04:34:28;96310.03;;;-1.96;96.65
13414;BME280;6778;48.136;11.386;2023-02-16T04:36:58;96302.78;;;-1.90;96.13
13414;BME280;6778;48.136;11.386;2023-02-16T04:39:28;96307.50;;;-1.73;95.31
13414;BME280;6778;48.136;11.386;2023-02-16T04:41:58;96298.72;;;-1.59;94.03
13414;BME280;6778;48.136;11.386;2023-02-16T04:44:28;96306.66;;;-1.51;94.01
13414;BME280;6778;48.136;11.386;2023-02-16T04:46:59;96304.41;;;-1.22;94.26
13414;BME280;6778;48.136;11.386;2023-02-16T04:49:34;96306.91;;;-1.54;94.36
13414;BME280;6778;48.136;11.386;2023-02-16T04:52:05;96309.94;;;-1.27;93.81
13414;BME280;6778;48.136;11.386;2023-02-16T04:54:35;96307.78;;;-1.11;92.86
13414;BME280;6778;48.136;11.386;2023-02-16T04:57:05;96312.78;;;-1.09;92.17
13414;BME280;6778;48.136;11.386;2023-02-16T04:59:36;96308.16;;;-1.15;92.01
13414;BME280;6778;48.136;11.386;2023-02-16T05:02:07;96313.63;;;-1.08;91.79
13414;BME280;6778;48.136;11.386;2023-02-16T05:04:39;96307.66;;;-0.98;91.19
13414;BME280;6778;48.136;11.386;2023-02-16T05:07:11;96313.03;;;-1.01;90.85
13414;BME280;6778;48.136;11.386;2023-02-16T05:09:41;96316.28;;;-0.99;90.56
13414;BME280;6778;48.136;11.386;2023-02-16T05:12:11;96313.94;;;-0.91;90.10
13414;BME280;6778;48.136;11.386;2023-02-16T05:14:53;96316.75;;;-0.94;90.24
13414;BME280;6778;48.136;11.386;2023-02-16T05:17:25;96315.81;;;-0.93;90.20
13414;BME280;6778;48.136;11.386;2023-02-16T05:19:59;96320.81;;;-0.80;89.82
13414;BME280;6778;48.136;11.386;2023-02-16T05:22:31;96306.31;;;-0.81;88.99
13414;BME280;6778;48.136;11.386;2023-02-16T05:25:05;96306.88;;;-0.77;89.36
13414;BME280;6778;48.136;11.386;2023-02-16T05:27:36;96313.03;;;-0.69;88.92
13414;BME280;6778;48.136;11.386;2023-02-16T05:30:07;96320.69;;;-0.78;89.27
13414;BME280;6778;48.136;11.386;2023-02-16T05:32:40;96321.56;;;-1.00;90.90
13414;BME280;6778;48.136;11.386;2023-02-16T05:35:13;96321.56;;;-1.00;91.22
13414;BME280;6778;48.136;11.386;2023-02-16T05:37:43;96320.63;;;-0.99;91.42
13414;BME280;6778;48.136;11.386;2023-02-16T05:40:13;96323.06;;;-0.98;90.92
13414;BME280;6778;48.136;11.386;2023-02-16T05:42:43;96329.28;;;-1.00;90.98
13414;BME280;6778;48.136;11.386;2023-02-16T05:45:13;96335.59;;;-1.16;91.36
13414;BME280;6778;48.136;11.386;2023-02-16T05:47:44;96335.94;;;-1.09;91.39
13414;BME280;6778;48.136;11.386;2023-02-16T05:50:16;96340.97;;;-1.07;91.13
13414;BME280;6778;48.136;11.386;2023-02-16T05:52:48;96344.81;;;-1.02;91.12
13414;BME280;6778;48.136;11.386;2023-02-16T05:55:18;96336.44;;;-1.15;91.42
13414;BME280;6778;48.136;11.386;2023-02-16T05:57:48;96339.22;;;-1.07;91.67
13414;BME280;6778;48.136;11.386;2023-02-16T06:00:18;96341.53;;;-1.04;91.23
13414;BME280;6778;48.136;11.386;2023-02-16T06:02:49;96343.63;;;-1.09;91.02
13414;BME280;6778;48.136;11.386;2023-02-16T06:05:22;96340.72;;;-1.16;91.39
13414;BME280;6778;48.136;11.386;2023-02-16T06:11:10;96343.28;;;-1.04;91.46
13414;BME280;6778;48.136;11.386;2023-02-16T06:13:54;96349.59;;;-0.97;91.02
13414;BME280;6778;48.136;11.386;2023-02-16T06:16:28;96355.31;;;-0.94;90.88
13414;BME280;6778;48.136;11.386;2023-02-16T06:19:01;96349.81;;;-0.89;90.46
13414;BME280;6778;48.136;11.386;2023-02-16T06:21:37;96352.84;;;-0.84;90.26
13414;BME280;6778;48.136;11.386;2023-02-16T06:24:11;96357.03;;;-0.83;90.30
13414;BME280;6778;48.136;11.386;2023-02-16T06:26:43;96361.97;;;-0.80;90.36
13414;BME280;6778;48.136;11.386;2023-02-16T06:29:13;96360.22;;;-0.91;90.97
13414;BME280;6778;48.136;11.386;2023-02-16T06:31:44;96360.88;;;-0.77;90.81
13414;BME280;6778;48.136;11.386;2023-02-16T06:34:16;96363.31;;;-0.65;90.06
13414;BME280;6778;48.136;11.386;2023-02-16T06:36:53;96365.28;;;-0.57;89.55
13414;BME280;6778;48.136;11.386;2023-02-16T06:39:26;96370.13;;;-0.43;89.15
13414;BME280;6778;48.136;11.386;2023-02-16T06:41:59;96370.28;;;-0.44;88.19
13414;BME280;6778;48.136;11.386;2023-02-16T06:44:33;96366.72;;;-0.32;87.87
13414;BME280;6778;48.136;11.386;2023-02-16T06:47:04;96373.84;;;-0.04;87.10
13414;BME280;6778;48.136;11.386;2023-02-16T06:49:35;96375.41;;;0.50;84.77
13414;BME280;6778;48.136;11.386;2023-02-16T06:52:09;96374.72;;;0.79;83.36
13414;BME280;6778;48.136;11.386;2023-02-16T06:54:40;96373.59;;;1.02;82.75
13414;BME280;6778;48.136;11.386;2023-02-16T06:57:10;96376.84;;;0.74;84.40
13414;BME280;6778;48.136;11.386;2023-02-16T06:59:40;96376.94;;;1.43;83.16
13414;BME280;6778;48.136;11.386;2023-02-16T07:02:10;96381.84;;;1.56;81.84
13414;BME280;6778;48.136;11.386;2023-02-16T07:04:40;96379.41;;;1.83;79.89
13414;BME280;6778;48.136;11.386;2023-02-16T07:07:14;96375.47;;;1.99;79.07
13414;BME280;6778;48.136;11.386;2023-02-16T07:09:45;96378.28;;;2.34;78.33
13414;BME280;6778;48.136;11.386;2023-02-16T07:12:33;96377.00;;;2.58;76.50
13414;BME280;6778;48.136;11.386;2023-02-16T07:15:08;96376.25;;;3.12;75.13
13414;BME280;6778;48.136;11.386;2023-02-16T07:17:38;96376.09;;;3.41;74.51
13414;BME280;6778;48.136;11.386;2023-02-16T07:20:27;96380.88;;;3.36;74.17
13414;BME280;6778;48.136;11.386;2023-02-16T07:22:59;96388.88;;;3.43;75.11
13414;BME280;6778;48.136;11.386;2023-02-16T07:25:29;96384.09;;;3.48;74.50
13414;BME280;6778;48.136;11.386;2023-02-16T07:28:03;96387.47;;;3.94;73.76
13414;BME280;6778;48.136;11.386;2023-02-16T07:30:33;96390.91;;;4.64;71.00
13414;BME280;6778;48.136;11.386;2023-02-16T07:33:04;96402.19;;;4.55;71.42
13414;BME280;6778;48.136;11.386;2023-02-16T07:35:35;96395.41;;;4.36;72.36
13414;BME280;6778;48.136;11.386;2023-02-16T07:38:08;96386.91;;;4.52;72.04
13414;BME280;6778;48.136;11.386;2023-02-16T07:40:38;96390.84;;;4.82;nan
13414;BME280;6778;48.136;11.386;2023-02-16T07:43:08;96387.69;;;4.96;71.71
13414;BME280;6778;48.136;11.386;2023-02-16T07:45:38;96389.84;;;5.09;71.23
13414;BME280;6778;48.136;11.386;2023-02-16T07:48:08;96393.53;;;5.40;70.30
13414;BME280;6778;48.136;11.386;2023-02-16T07:50:39;96393.25;;;5.52;69.66
13414;BME280;6778;48.136;11.386;2023-02-16T07:53:12;96401.47;;;5.31;70.69
13414;BME280;6778;48.136;11.386;2023-02-16T07:55:44;96394.63;;;5.22;72.03
13414;BME280;6778;48.136;11.386;2023-02-16T07:58:14;96405.41;;;5.43;71.57
13414;BME280;6778;48.136;11.386;2023-02-16T08:00:54;96399.59;;;5.49;71.88
13414;BME280;6778;48.136;11.386;2023-02-16T08:03:24;96399.75;;;6.31;70.76
13414;BME280;6778;48.136;11.386;2023-02-16T08:06:13;96404.41;;;7.31;68.18
13414;BME280;6778;48.136;11.386;2023-02-16T08:08:46;96399.63;;;7.43;65.77
13414;BME280;6778;48.136;11.386;2023-02-16T08:11:19;96408.28;;;7.75;64.11
13414;BME280;6778;48.136;11.386;2023-02-16T08:14:08;96404.38;;;8.02;65.76
13414;BME280;6778;48.136;11.386;2023-02-16T08:16:38;96410.84;;;8.14;65.12
13414;BME280;6778;48.136;11.386;2023-02-16T08:19:08;96415.00;;;8.46;64.17
13414;BME280;6778;48.136;11.386;2023-02-16T08:21:39;96412.81;;;8.72;63.76
13414;BME280;6778;48.136;11.386;2023-02-16T08:24:16;96410.50;;;8.78;63.60
13414;BME280;6778;48.136;11.386;2023-02-16T08:26:46;96411.06;;;8.88;62.59
13414;BME280;6778;48.136;11.386;2023-02-16T08:29:19;96403.84;;;9.49;60.14
13414;BME280;6778;48.136;11.386;2023-02-16T08:31:50;96404.59;;;9.79;58.03
13414;BME280;6778;48.136;11.386;2023-02-16T08:34:23;96405.59;;;10.35;56.89
13414;BME280;6778;48.136;11.386;2023-02-16T08:36:55;96407.94;;;10.24;55.98
13414;BME280;6778;48.136;11.386;2023-02-16T08:39:31;96401.59;;;10.61;54.65
13414;BME280;6778;48.136;11.386;2023-02-16T08:42:01;96400.75;;;10.32;54.70
13414;BME280;6778;48.136;11.386;2023-02-16T08:44:31;96406.31;;;10.08;54.92
13414;BME280;6778;48.136;11.386;2023-02-16T08:47:01;96400.72;;;9.90;55.35
13414;BME280;6778;48.136;11.386;2023-02-16T08:49:31;96400.31;;;9.93;55.47
13414;BME280;6778;48.136;11.386;2023-02-16T08:52:01;96396.28;;;10.11;54.90
13414;BME280;6778;48.136;11.386;2023-02-16T08:54:34;96401.78;;;10.17;54.31
13414;BME280;6778;48.136;11.386;2023-02-16T08:57:23;96404.19;;;10.33;53.23
13414;BME280;6778;48.136;11.386;2023-02-16T08:59:56;96398.66;;;10.49;52.67
13414;BME280;6778;48.136;11.386;2023-02-16T09:02:41;96395.34;;;10.62;52.39
13414;BME280;6778;48.136;11.386;2023-02-16T09:05:11;96406.56;;;11.40;50.34
13414;BME280;6778;48.136;11.386;2023-02-16T09:08:00;96404.44;;;11.70;49.43
13414;BME280;6778;48.136;11.386;2023-02-16T09:10:33;96410.22;;;11.93;48.21
13414;BME280;6778;48.136;11.386;2023-02-16T09:13:03;96405.47;;;12.37;47.40
13414;BME280;6778;48.136;11.386;2023-02-16T09:16:00;96404.03;;;12.94;46.10
13414;BME280;6778;48.136;11.386;2023-02-16T09:18:31;96402.09;;;13.60;44.81
13414;BME280;6778;48.136;11.386;2023-02-16T09:21:04;96406.94;;;14.08;43.53
13414;BME280;6778;48.136;11.386;2023-02-16T09:23:40;96405.25;;;15.27;41.26
13414;BME280;6778;48.136;11.386;2023-02-16T09:26:14;96398.38;;;15.99;39.70
13414;BME280;6778;48.136;11.386;2023-02-16T09:28:44;96405.13;;;16.67;38.00
13414;BME280;6778;48.136;11.386;2023-02-16T09:31:17;96405.91;;;16.56;37.76
13414;BME280;6778;48.136;11.386;2023-02-16T09:33:53;96411.31;;;16.61;37.67
13414;BME280;6778;48.136;11.386;2023-02-16T09:36:23;96407.13;;;16.83;37.78
13414;BME280;6778;48.136;11.386;2023-02-16T09:38:54;96413.88;;;16.68;37.29
13414;BME280;6778;48.136;11.386;2023-02-16T09:42:05;96412.84;;;16.38;36.89
13414;BME280;6778;48.136;11.386;2023-02-16T09:45:04;96409.78;;;16.95;36.57
13414;BME280;6778;48.136;11.386;2023-02-16T09:47:39;96408.25;;;18.55;34.09
13414;BME280;6778;48.136;11.386;2023-02-16T09:50:15;96404.91;;;18.60;34.06
13414;BME280;6778;48.136;11.386;2023-02-16T09:53:20;96406.63;;;18.99;32.17
13414;BME280;6778;48.136;11.386;2023-02-16T09:56:19;96401.03;;;19.73;31.29
13414;BME280;6778;48.136;11.386;2023-02-16T09:58:57;96400.53;;;19.76;31.37
13414;BME280;6778;48.136;11.386;2023-02-16T10:01:37;96404.44;;;19.69;31.27
13414;BME280;6778;48.136;11.386;2023-02-16T10:04:31;96407.19;;;19.18;31.77
13414;BME280;6778;48.136;11.386;2023-02-16T10:07:20;96413.13;;;19.25;32.09
13414;BME280;6778;48.136;11.386;2023-02-16T10:10:21;96404.31;;;19.58;31.80
13414;BME280;6778;48.136;11.386;2023-02-16T10:12:56;96408.72;;;19.53;30.45
13414;BME280;6778;48.136;11.386;2023-02-16T10:15:36;96413.72;;;18.94;31.81
13414;BME280;6778;48.136;11.386;2023-02-16T10:18:19;96409.59;;;19.20;31.30
13414;BME280;6778;48.136;11.386;2023-02-16T10:21:16;96411.97;;;19.77;30.49
13414;BME280;6778;48.136;11.386;2023-02-16T10:24:11;96406.31;;;21.03;28.66
13414;BME280;6778;48.136;11.386;2023-02-16T10:26:46;96411.78;;;21.66;27.84
13414;BME280;6778;48.136;11.386;2023-02-16T10:29:21;96409.72;;;22.51;27.54
13414;BME280;6778;48.136;11.386;2023-02-16T10:32:05;96405.94;;;22.47;27.41
13414;BME280;6778;48.136;11.386;2023-02-16T10:34:49;96410.75;;;22.29;27.72
13414;BME280;6778;48.136;11.386;2023-02-16T10:37:32;96405.63;;;20.81;28.58
13414;BME280;6778;48.136;11.386;2023-02-16T10:40:19;96406.50;;;20.32;29.52
13414;BME280;6778;48.136;11.386;2023-02-16T10:42:58;96416.13;;;20.65;29.39
13414;BME280;6778;48.136;11.386;2023-02-16T10:45:38;96409.09;;;19.23;31.37
13414;BME280;6778;48.136;11.386;2023-02-16T10:48:21;96403.59;;;18.45;32.24
13414;BME280;6778;48.136;11.386;2023-02-16T10:50:57;96395.97;;;17.92;33.34
13414;BME280;6778;48.136;11.386;2023-02-16T10:53:36;96398.16;;;19.02;32.73
13414;BME280;6778;48.136;11.386;2023-02-16T10:56:40;96395.78;;;19.78;31.76
13414;BME280;6778;48.136;11.386;2023-02-16T10:59:18;96389.91;;;19.76;31.95
13414;BME280;6778;48.136;11.386;2023-02-16T11:01:51;96384.28;;;19.34;32.55
13414;BME280;6778;48.136;11.386;2023-02-16T11:04:35;96387.75;;;19.34;31.56
13414;BME280;6778;48.136;11.386;2023-02-16T11:07:08;96391.44;;;18.78;32.76
13414;BME280;6778;48.136;11.386;2023-02-16T11:09:58;96384.00;;;18.18;32.95
13414;BME280;6778;48.136;11.386;2023-02-16T11:12:33;96397.78;;;18.03;33.36
13414;BME280;6778;48.136;11.386;2023-02-16T11:15:19;96373.81;;;17.98;33.30
13414;BME280;6778;48.136;11.386;2023-02-16T11:17:54;96374.13;;;17.73;33.20
13414;BME280;6778;48.136;11.386;2023-02-16T11:20:54;96364.91;;;17.00;34.57
13414;BME280;6778;48.136;11.386;2023-02-16T11:23:57;96364.75;;;17.18;34.45
13414;BME280;6778;48.136;11.386;2023-02-16T11:26:28;96370.31;;;17.17;35.03
13414;BME280;6778;48.136;11.386;2023-02-16T11:29:16;96361.91;;;16.97;35.40
13414;BME280;6778;48.136;11.386;2023-02-16T11:31:47;96363.63;;;17.03;34.57
13414;BME280;6778;48.136;11.386;2023-02-16T11:34:28;96360.66;;;16.87;33.76
13414;BME280;6778;48.136;11.386;2023-02-16T11:37:06;96358.31;;;16.79;33.92
13414;BME280;6778;48.136;11.386;2023-02-16T11:39:45;96355.50;;;16.51;34.28
13414;BME280;6778;48.136;11.386;2023-02-16T11:42:23;96352.38;;;16.30;34.56
13414;BME280;6778;48.136;11.386;2023-02-16T11:44:56;96346.94;;;16.25;34.46
13414;BME280;6778;48.136;11.386;2023-02-16T11:47:30;96343.06;;;15.98;35.00
13414;BME280;6778;48.136;11.386;2023-02-16T11:50:18;96332.56;;;15.61;35.69
13414;BME280;6778;48.136;11.386;2023-02-16T11:52:53;96337.63;;;15.81;35.65
13414;BME280;6778;48.136;11.386;2023-02-16T11:55:27;96333.47;;;15.73;35.31
13414;BME280;6778;48.136;11.386;2023-02-16T11:58:14;96327.59;;;15.35;35.99
13414;BME280;6778;48.136;11.386;2023-02-16T12:00:56;96323.34;;;15.34;35.90
13414;BME280;6778;48.136;11.386;2023-02-16T12:03:50;96320.63;;;15.03;36.10
13414;BME280;6778;48.136;11.386;2023-02-16T12:06:44;96313.59;;;15.16;35.84
13414;BME280;6778;48.136;11.386;2023-02-16T12:09:36;96311.56;;;14.99;35.99
13414;BME280;6778;48.136;11.386;2023-02-16T12:12:13;96306.41;;;14.86;36.61
13414;BME280;6778;48.136;11.386;2023-02-16T12:14:57;96299.72;;;14.65;36.16
13414;BME280;6778;48.136;11.386;2023-02-16T12:17:47;96298.97;;;14.58;36.81
13414;BME280;6778;48.136;11.386;2023-02-16T12:20:33;96298.34;;;14.56;36.69
13414;BME280;6778;48.136;11.386;2023-02-16T12:23:22;96300.50;;;14.41;36.77
13414;BME280;6778;48.136;11.386;2023-02-16T12:26:13;96296.69;;;14.37;37.04
13414;BME280;6778;48.136;11.386;2023-02-16T12:28:59;96288.44;;;14.27;37.33
13414;BME280;6778;48.136;11.386;2023-02-16T12:31:53;96288.88;;;13.99;37.35
13414;BME280;6778;48.136;11.386;2023-02-16T12:34:36;96284.75;;;13.78;37.63
13414;BME280;6778;48.136;11.386;2023-02-16T12:37:24;96284.97;;;13.76;36.89
13414;BME280;6778;48.136;11.386;2023-02-16T12:40:12;96283.44;;;13.62;38.17
13414;BME280;6778;48.136;11.386;2023-02-16T12:43:01;96281.75;;;13.68;38.39
13414;BME280;6778;48.136;11.386;2023-02-16T12:45:44;96275.41;;;13.50;38.37
13414;BME280;6778;48.136;11.386;2023-02-16T12:48:32;96272.66;;;13.32;38.41
13414;BME280;6778;48.136;11.386;2023-02-16T12:51:10;96266.75;;;13.36;37.82
13414;BME280;6778;48.136;11.386;2023-02-16T12:53:48;96272.66;;;13.32;38.26
13414;BME280;6778;48.136;11.386;2023-02-16T12:56:25;96271.50;;;13.08;38.30
13414;BME280;6778;48.136;11.386;2023-02-16T12:59:14;96267.03;;;13.22;39.29
13414;BME280;6778;48.136;11.386;2023-02-16T13:01:49;96263.38;;;13.16;38.51
13414;BME280;6778;48.136;11.386;2023-02-16T13:04:25;96262.53;;;13.35;38.92
13414;BME280;6778;48.136;11.386;2023-02-16T13:07:09;96252.06;;;13.22;38.37
13414;BME280;6778;48.136;11.386;2023-02-16T13:09:52;96251.59;;;13.32;39.04
13414;BME280;6778;48.136;11.386;2023-02-16T13:12:32;96244.31;;;13.27;38.95
13414;BME280;6778;48.136;11.386;2023-02-16T13:15:12;96242.97;;;13.11;39.29
13414;BME280;6778;48.136;11.386;2023-02-16T13:17:49;96241.16;;;13.05;38.18
13414;BME280;6778;48.136;11.386;2023-02-16T13:20:23;96236.69;;;13.12;37.99
13414;BME280;6778;48.136;11.386;2023-02-16T13:26:23;96239.28;;;13.26;38.46
13414;BME280;6778;48.136;11.386;2023-02-16T13:29:29;96236.50;;;13.14;38.34
13414;BME280;6778;48.136;11.386;2023-02-16T13:32:30;96233.25;;;13.05;38.58
13414;BME280;6778;48.136;11.386;2023-02-16T13:35:27;96236.66;;;13.19;38.72
13414;BME280;6778;48.136;11.386;2023-02-16T13:41:33;96232.84;;;13.22;38.31
13414;BME280;6778;48.136;11.386;2023-02-16T13:44:30;96238.09;;;13.22;38.34
13414;BME280;6778;48.136;11.386;2023-02-16T13:47:05;96229.56;;;13.20;38.04
13414;BME280;6778;48.136;11.386;2023-02-16T13:49:41;96231.19;;;13.21;38.65
13414;BME280;6778;48.136;11.386;2023-02-16T13:52:29;96230.84;;;13.04;37.88
13414;BME280;6778;48.136;11.386;2023-02-16T13:55:03;96227.63;;;13.02;37.60
13414;BME280;6778;48.136;11.386;2023-02-16T13:57:57;96230.41;;;13.20;37.83
13414;BME280;6778;48.136;11.386;2023-02-16T14:00:31;96227.81;;;13.00;37.36
13414;BME280;6778;48.136;11.386;2023-02-16T14:03:08;96222.09;;;13.17;37.66
13414;BME280;6778;48.136;11.386;2023-02-16T14:05:44;96224.25;;;13.33;37.58
13414;BME280;6778;48.136;11.386;2023-02-16T14:08:21;96216.78;;;13.30;37.53
13414;BME280;6778;48.136;11.386;2023-02-16T14:11:00;96216.59;;;13.31;37.57
13414;BME280;6778;48.136;11.386;2023-02-16T14:13:42;96209.44;;;13.38;37.58
13414;BME280;6778;48.136;11.386;2023-02-16T14:16:30;96221.22;;;13.36;37.58
13414;BME280;6778;48.136;11.386;2023-02-16T14:19:04;96212.22;;;13.50;37.83